Time;durP1;ratioP1;P1;durP2;ratioP2;P2;SDS_P1;SDS_P2;PMS_P1;PMS_P2;Temp;Humidity;BMP_temperature;BMP_pressure;BME280_temperature;BME280_humidity;BME280_pressure;Samples;Min_cycle;Max_cycle;Signal;HPM_P1;HPM_P2
2023/06/28 00:00:52;;;;;;;13.65;7.65;;;;;;;;;;5077843;28;20029;-91
2023/06/28 00:03:17;;;;;;;11.02;7.65;;;;;;;;;;5087589;28;20036;-91
2023/06/28 00:05:45;;;;;;;11.05;7.55;;;;;;;;;;5084337;28;20024;-90
2023/06/28 00:08:10;;;;;;;14.05;7.50;;;;;;;;;;5042946;28;20452;-90
2023/06/28 00:10:36;;;;;;;14.45;7.80;;;;;;;;;;5081242;28;20033;-90
2023/06/28 00:13:01;;;;;;;13.77;7.75;;;;;;;;;;5079577;28;20071;-90
2023/06/28 00:15:27;;;;;;;12.70;7.63;;;;;;;;;;5057680;28;20072;-90
2023/06/28 00:17:52;;;;;;;11.70;7.38;;;;;;;;;;5058396;28;20035;-89
2023/06/28 00:20:18;;;;;;;12.02;8.07;;;;;;;;;;5076268;28;20055;-88
2023/06/28 00:22:44;;;;;;;11.63;7.25;;;;;;;;;;5040597;28;20098;-90
2023/06/28 00:25:09;;;;;;;15.35;8.13;;;;;;;;;;5075290;28;20036;-92
2023/06/28 00:27:35;;;;;;;13.60;7.60;;;;;;;;;;5076997;28;20033;-91
2023/06/28 00:30:00;;;;;;;10.73;7.97;;;;;;;;;;5077567;28;20028;-90
2023/06/28 00:32:26;;;;;;;12.10;7.85;;;;;;;;;;5078510;28;20048;-89
2023/06/28 00:34:51;;;;;;;14.13;7.60;;;;;;;;;;5067135;28;20037;-90
2023/06/28 00:37:17;;;;;;;12.32;7.75;;;;;;;;;;5059862;28;20125;-89
2023/06/28 00:39:42;;;;;;;19.52;8.65;;;;;;;;;;5075969;28;20033;-89
2023/06/28 00:42:08;;;;;;;10.90;7.43;;;;;;;;;;5041579;28;20032;-88
2023/06/28 00:44:33;;;;;;;10.35;7.70;;;;;;;;;;5040867;28;20090;-89
2023/06/28 00:46:59;;;;;;;13.77;7.72;;;;;;;;;;5042544;28;20029;-91
2023/06/28 00:49:37;;;;;;;15.95;7.57;;;;;;;;;;5058191;28;20466;-90
2023/06/28 00:52:03;;;;;;;15.50;7.80;;;;;;;;;;5041887;28;20127;-89
2023/06/28 00:54:29;;;;;;;11.05;7.93;;;;;;;;;;5042697;28;20048;-90
2023/06/28 00:56:54;;;;;;;10.85;7.88;;;;;;;;;;5081774;28;20056;-90
2023/06/28 00:59:48;;;;;;;12.98;8.00;;;;;;;;;;5090214;28;20470;-90
2023/06/28 01:02:13;;;;;;;11.77;7.45;;;;;;;;;;5075040;28;20119;-90
2023/06/28 01:04:40;;;;;;;13.52;7.78;;;;;;;;;;5074823;28;20475;-91
2023/06/28 01:07:06;;;;;;;11.82;7.97;;;;;;;;;;5075471;28;20084;-89
2023/06/28 01:09:31;;;;;;;10.70;7.82;;;;;;;;;;5041013;28;20146;-91
2023/06/28 01:11:57;;;;;;;13.20;8.15;;;;;;;;;;5057861;28;20566;-88
2023/06/28 01:14:23;;;;;;;17.65;7.80;;;;;;;;;;5056944;28;20036;-88
2023/06/28 01:16:49;;;;;;;11.85;7.97;;;;;;;;;;5057167;28;20039;-88
2023/06/28 01:19:17;;;;;;;12.32;8.00;;;;;;;;;;5054199;28;20020;-90
2023/06/28 01:21:45;;;;;;;15.27;7.65;;;;;;;;;;5074802;28;20362;-88
2023/06/28 01:24:11;;;;;;;15.73;7.68;;;;;;;;;;5058041;28;20452;-88
2023/06/28 01:26:37;;;;;;;15.40;7.63;;;;;;;;;;5062657;28;20143;-89
2023/06/28 01:29:04;;;;;;;13.75;7.05;;;;;;;;;;5078611;28;20392;-89
2023/06/28 01:31:30;;;;;;;8.00;6.70;;;;;;;;;;5061467;28;20028;-89
2023/06/28 01:33:56;;;;;;;9.90;6.78;;;;;;;;;;5078372;28;20036;-90
2023/06/28 01:36:21;;;;;;;9.07;6.53;;;;;;;;;;5060342;28;20036;-88
2023/06/28 01:38:46;;;;;;;9.65;5.90;;;;;;;;;;5043946;28;20351;-89
2023/06/28 01:41:12;;;;;;;8.90;5.72;;;;;;;;;;5083817;28;20039;-89
2023/06/28 01:43:39;;;;;;;14.25;6.10;;;;;;;;;;5067776;28;20037;-89
2023/06/28 01:46:05;;;;;;;11.48;6.25;;;;;;;;;;5044265;28;20031;-89
2023/06/28 01:48:31;;;;;;;8.38;6.20;;;;;;;;;;5043607;28;20056;-88
2023/06/28 01:50:56;;;;;;;12.10;5.70;;;;;;;;;;5044507;28;20040;-88
2023/06/28 01:53:22;;;;;;;6.25;5.25;;;;;;;;;;5060496;28;20047;-88
2023/06/28 01:55:48;;;;;;;10.88;5.32;;;;;;;;;;5094114;28;20358;-91
2023/06/28 01:58:13;;;;;;;8.35;4.18;;;;;;;;;;5077649;28;20067;-90
2023/06/28 02:00:39;;;;;;;7.47;4.60;;;;;;;;;;5077838;28;20028;-90
2023/06/28 02:03:04;;;;;;;7.60;4.22;;;;;;;;;;5063096;28;20055;-89
2023/06/28 02:05:30;;;;;;;7.07;4.65;;;;;;;;;;5070927;28;20048;-89
2023/06/28 02:07:55;;;;;;;6.47;4.07;;;;;;;;;;5059712;28;20032;-91
2023/06/28 02:10:25;;;;;;;7.85;4.22;;;;;;;;;;5043762;28;20025;-89
2023/06/28 02:12:51;;;;;;;6.28;4.25;;;;;;;;;;5044078;28;20024;-90
2023/06/28 02:15:16;;;;;;;8.43;3.80;;;;;;;;;;5078011;28;20024;-89
2023/06/28 02:17:42;;;;;;;7.25;4.05;;;;;;;;;;5077571;28;20024;-90
2023/06/28 02:20:10;;;;;;;10.95;3.90;;;;;;;;;;5093497;28;20025;-90
2023/06/28 02:22:36;;;;;;;6.57;3.75;;;;;;;;;;5026729;28;20032;-91
2023/06/28 02:25:02;;;;;;;6.82;3.80;;;;;;;;;;5077046;28;20089;-89
2023/06/28 02:27:28;;;;;;;5.18;3.85;;;;;;;;;;5089323;28;20060;-90
2023/06/28 02:29:53;;;;;;;5.55;3.60;;;;;;;;;;5077828;28;20451;-87
2023/06/28 02:32:20;;;;;;;6.57;3.67;;;;;;;;;;5061411;28;20367;-88
2023/06/28 02:34:45;;;;;;;6.20;3.83;;;;;;;;;;5077291;28;20036;-90
2023/06/28 02:37:11;;;;;;;11.80;3.60;;;;;;;;;;5043283;28;20031;-89
2023/06/28 02:39:36;;;;;;;7.57;3.80;;;;;;;;;;5059625;28;20064;-88
2023/06/28 02:42:02;;;;;;;6.53;3.50;;;;;;;;;;5076897;28;20032;-90
2023/06/28 02:44:27;;;;;;;5.32;3.40;;;;;;;;;;5026198;28;20364;-89
2023/06/28 02:46:53;;;;;;;6.38;3.05;;;;;;;;;;5077713;28;20074;-89
2023/06/28 02:49:18;;;;;;;6.50;3.60;;;;;;;;;;5088725;28;20077;-89
2023/06/28 02:51:43;;;;;;;9.13;3.70;;;;;;;;;;5079664;28;20033;-89
2023/06/28 02:54:09;;;;;;;6.38;3.65;;;;;;;;;;5077585;28;20064;-89
2023/06/28 02:56:34;;;;;;;4.65;3.13;;;;;;;;;;5059853;28;20101;-89
2023/06/28 02:59:00;;;;;;;5.43;3.50;;;;;;;;;;5078577;28;20526;-88
2023/06/28 03:01:25;;;;;;;7.32;3.10;;;;;;;;;;5076505;28;20039;-90
2023/06/28 03:03:51;;;;;;;4.65;3.20;;;;;;;;;;5076491;28;20037;-90
2023/06/28 03:06:17;;;;;;;4.15;3.35;;;;;;;;;;5058491;28;20028;-89
2023/06/28 03:08:42;;;;;;;7.75;3.40;;;;;;;;;;5042471;28;20099;-91
2023/06/28 03:11:08;;;;;;;3.95;3.20;;;;;;;;;;5082104;28;20024;-88
2023/06/28 03:13:33;;;;;;;7.15;3.22;;;;;;;;;;5085931;28;20024;-88
2023/06/28 03:15:59;;;;;;;8.45;3.05;;;;;;;;;;5076139;28;20355;-89
2023/06/28 03:18:25;;;;;;;6.32;2.90;;;;;;;;;;5076125;28;20435;-91
2023/06/28 03:20:50;;;;;;;6.97;3.10;;;;;;;;;;5076121;28;20025;-89
2023/06/28 03:23:16;;;;;;;8.60;3.35;;;;;;;;;;5057889;28;20403;-90
2023/06/28 03:25:41;;;;;;;4.13;2.95;;;;;;;;;;5076199;28;20040;-90
2023/06/28 03:28:07;;;;;;;5.47;3.10;;;;;;;;;;5058021;28;20044;-88
2023/06/28 03:30:33;;;;;;;4.75;2.88;;;;;;;;;;5076737;28;20039;-88
2023/06/28 03:32:58;;;;;;;12.23;3.35;;;;;;;;;;5075960;28;20436;-88
2023/06/28 03:35:24;;;;;;;5.68;2.97;;;;;;;;;;5070154;28;20051;-88
2023/06/28 03:37:52;;;;;;;7.60;3.47;;;;;;;;;;5075591;28;20064;-89
2023/06/28 03:40:18;;;;;;;5.80;2.97;;;;;;;;;;5075037;28;20048;-89
2023/06/28 03:42:43;;;;;;;5.03;3.05;;;;;;;;;;5040752;28;20033;-89
2023/06/28 03:45:09;;;;;;;3.13;2.78;;;;;;;;;;5041339;28;20024;-90
2023/06/28 03:47:34;;;;;;;5.70;3.20;;;;;;;;;;5075544;28;20474;-89
2023/06/28 03:50:00;;;;;;;5.65;3.20;;;;;;;;;;5041444;28;20029;-89
2023/06/28 03:52:25;;;;;;;3.75;3.03;;;;;;;;;;5075295;28;20032;-91
2023/06/28 03:54:51;;;;;;;4.05;2.97;;;;;;;;;;5075572;28;20039;-89
2023/06/28 03:57:17;;;;;;;4.45;3.00;;;;;;;;;;5068820;28;20044;-88
2023/06/28 03:59:42;;;;;;;7.18;3.33;;;;;;;;;;5078389;28;20035;-88
2023/06/28 04:02:07;;;;;;;6.20;3.15;;;;;;;;;;5057719;28;20110;-89
2023/06/28 04:04:33;;;;;;;5.78;3.33;;;;;;;;;;5079960;28;20047;-89
2023/06/28 04:07:03;;;;;;;5.15;3.33;;;;;;;;;;5083472;28;20036;-88
2023/06/28 04:09:28;;;;;;;5.03;3.42;;;;;;;;;;5062234;28;20043;-89
2023/06/28 04:11:54;;;;;;;9.65;3.28;;;;;;;;;;5058004;28;20032;-90
2023/06/28 04:14:19;;;;;;;9.15;3.30;;;;;;;;;;5075013;28;20383;-90
2023/06/28 04:16:45;;;;;;;8.20;3.35;;;;;;;;;;5057076;28;20035;-90
2023/06/28 04:19:10;;;;;;;9.82;3.30;;;;;;;;;;5077638;28;20028;-88
2023/06/28 04:21:38;;;;;;;4.53;3.20;;;;;;;;;;5082940;28;20043;-89
2023/06/28 04:24:04;;;;;;;6.50;3.30;;;;;;;;;;5074743;28;20043;-88
2023/06/28 04:26:32;;;;;;;4.63;3.40;;;;;;;;;;5074932;28;20432;-89
2023/06/28 04:28:57;;;;;;;3.88;2.78;;;;;;;;;;5056855;28;20028;-87
2023/06/28 04:31:24;;;;;;;8.02;3.15;;;;;;;;;;5057820;28;20316;-89
2023/06/28 04:33:49;;;;;;;12.85;3.05;;;;;;;;;;5075792;28;20366;-90
2023/06/28 04:36:21;;;;;;;7.60;2.85;;;;;;;;;;5077752;28;20128;-89
2023/06/28 04:38:52;;;;;;;5.30;2.80;;;;;;;;;;5082282;28;20084;-88
2023/06/28 04:41:19;;;;;;;9.43;3.03;;;;;;;;;;5077302;28;20057;-87
2023/06/28 04:43:45;;;;;;;4.70;2.78;;;;;;;;;;5041924;28;20455;-84
2023/06/28 04:46:23;;;;;;;4.40;2.70;;;;;;;;;;5076140;28;20028;-86
2023/06/28 04:48:48;;;;;;;3.88;2.90;;;;;;;;;;5081576;28;20502;-86
2023/06/28 04:53:50;;;;;;;5.25;2.97;;;;;;;;;;5070855;28;20084;-81
2023/06/28 04:56:15;;;;;;;6.55;2.92;;;;;;;;;;5055946;28;20028;-81
2023/06/28 04:58:41;;;;;;;7.53;2.95;;;;;;;;;;5038823;28;20033;-79
2023/06/28 05:01:09;;;;;;;7.43;3.30;;;;;;;;;;5053813;28;20021;-82
2023/06/28 05:03:35;;;;;;;4.03;3.05;;;;;;;;;;5066712;28;20063;-79
2023/06/28 05:06:06;;;;;;;6.25;3.08;;;;;;;;;;5032139;28;20025;-81
2023/06/28 05:08:32;;;;;;;6.05;3.63;;;;;;;;;;5057242;28;20041;-82
2023/06/28 05:10:59;;;;;;;4.03;2.65;;;;;;;;;;5055605;28;20060;-82
2023/06/28 05:13:24;;;;;;;4.75;3.17;;;;;;;;;;5075877;28;20127;-80
2023/06/28 05:15:50;;;;;;;9.07;3.40;;;;;;;;;;5058722;28;20383;-81
2023/06/28 05:18:17;;;;;;;6.30;3.10;;;;;;;;;;5073548;28;20040;-81
2023/06/28 05:20:42;;;;;;;4.60;3.20;;;;;;;;;;5071554;28;20024;-83
2023/06/28 05:23:26;;;;;;;5.95;2.80;;;;;;;;;;5072809;28;20017;-84
2023/06/28 05:25:52;;;;;;;5.13;3.10;;;;;;;;;;5070258;28;20039;-82
2023/06/28 05:28:19;;;;;;;3.95;2.90;;;;;;;;;;5072250;28;20359;-83
2023/06/28 05:30:47;;;;;;;5.55;2.85;;;;;;;;;;5070379;28;20112;-81
2023/06/28 05:33:14;;;;;;;6.90;3.33;;;;;;;;;;5070606;28;20123;-82
2023/06/28 05:35:39;;;;;;;5.28;2.85;;;;;;;;;;5057395;28;20028;-82
2023/06/28 05:38:05;;;;;;;5.65;3.05;;;;;;;;;;5056027;28;20504;-82
2023/06/28 05:40:51;;;;;;;4.60;2.80;;;;;;;;;;5075219;28;20050;-82
2023/06/28 05:43:21;;;;;;;13.52;3.10;;;;;;;;;;5077513;28;20037;-82
2023/06/28 05:45:50;;;;;;;25.73;3.63;;;;;;;;;;5080543;28;20032;-81
2023/06/28 05:48:17;;;;;;;23.08;3.53;;;;;;;;;;5058312;28;20120;-82
2023/06/28 05:50:43;;;;;;;7.30;3.00;;;;;;;;;;5054466;28;20460;-81
2023/06/28 05:53:08;;;;;;;3.67;2.88;;;;;;;;;;5072901;28;20055;-81
2023/06/28 05:55:34;;;;;;;8.55;2.70;;;;;;;;;;5053686;28;20059;-81
2023/06/28 05:57:59;;;;;;;6.85;3.00;;;;;;;;;;5053147;28;20041;-82
2023/06/28 06:00:25;;;;;;;3.95;2.53;;;;;;;;;;5070580;28;20036;-82
2023/06/28 06:02:50;;;;;;;8.98;3.10;;;;;;;;;;5055815;28;20499;-81
2023/06/28 06:05:16;;;;;;;4.22;2.80;;;;;;;;;;5056349;28;20467;-83
2023/06/28 06:07:41;;;;;;;4.80;2.70;;;;;;;;;;5074361;28;20079;-82
2023/06/28 06:10:09;;;;;;;3.20;2.60;;;;;;;;;;5073443;28;20080;-82
2023/06/28 06:12:34;;;;;;;3.90;2.75;;;;;;;;;;5075309;28;20041;-82
2023/06/28 06:15:02;;;;;;;5.68;3.08;;;;;;;;;;5057532;28;20148;-82
2023/06/28 06:17:27;;;;;;;3.22;2.45;;;;;;;;;;5057787;28;20028;-81
2023/06/28 06:19:53;;;;;;;4.82;2.40;;;;;;;;;;5075113;28;20123;-83
2023/06/28 06:22:18;;;;;;;4.93;2.60;;;;;;;;;;5074619;28;20034;-80
2023/06/28 06:24:44;;;;;;;3.33;2.33;;;;;;;;;;5075375;28;20046;-81
2023/06/28 06:27:09;;;;;;;4.80;2.90;;;;;;;;;;5025667;28;20135;-82
2023/06/28 06:29:35;;;;;;;6.15;2.90;;;;;;;;;;5078283;28;20045;-82
2023/06/28 06:32:00;;;;;;;4.70;2.70;;;;;;;;;;5056964;28;20048;-82
2023/06/28 06:34:25;;;;;;;3.55;2.72;;;;;;;;;;5042054;28;20024;-82
2023/06/28 06:36:51;;;;;;;5.18;2.53;;;;;;;;;;5039929;28;20048;-82
2023/06/28 06:39:17;;;;;;;3.60;2.60;;;;;;;;;;5056723;28;20031;-82
2023/06/28 06:41:42;;;;;;;7.30;2.75;;;;;;;;;;5038562;28;20029;-82
2023/06/28 06:44:07;;;;;;;8.13;2.97;;;;;;;;;;5056759;28;20040;-81
2023/06/28 06:46:33;;;;;;;6.53;2.88;;;;;;;;;;5040147;28;20128;-82
2023/06/28 06:48:58;;;;;;;5.63;3.10;;;;;;;;;;5039299;28;20060;-82
2023/06/28 06:51:24;;;;;;;7.18;3.10;;;;;;;;;;5056488;28;20033;-83
2023/06/28 06:53:49;;;;;;;8.30;3.00;;;;;;;;;;5056111;28;20114;-82
2023/06/28 06:56:24;;;;;;;4.18;3.10;;;;;;;;;;5050892;28;20150;-82
2023/06/28 06:58:50;;;;;;;12.52;2.70;;;;;;;;;;5025587;28;20037;-83
2023/06/28 07:01:15;;;;;;;6.00;3.00;;;;;;;;;;5061685;28;20124;-83
2023/06/28 07:03:41;;;;;;;8.10;2.50;;;;;;;;;;5059575;28;20037;-83
2023/06/28 07:06:06;;;;;;;4.00;2.97;;;;;;;;;;5041953;28;20041;-83
2023/06/28 07:08:33;;;;;;;6.15;3.10;;;;;;;;;;5025212;28;20037;-80
2023/06/28 07:11:00;;;;;;;7.20;3.67;;;;;;;;;;5057022;28;20021;-80
2023/06/28 07:13:26;;;;;;;9.45;3.38;;;;;;;;;;5064436;28;20029;-84
2023/06/28 07:15:51;;;;;;;10.38;3.47;;;;;;;;;;5051155;28;20033;-83
2023/06/28 07:18:17;;;;;;;5.03;3.40;;;;;;;;;;5058355;28;20023;-81
2023/06/28 07:20:42;;;;;;;7.70;3.17;;;;;;;;;;5072958;28;20348;-82
2023/06/28 07:23:08;;;;;;;12.05;3.70;;;;;;;;;;5037590;28;20072;-83
2023/06/28 07:25:33;;;;;;;5.45;3.40;;;;;;;;;;5054150;28;20131;-82
2023/06/28 07:27:59;;;;;;;6.60;3.70;;;;;;;;;;5054117;28;20583;-83
2023/06/28 07:30:24;;;;;;;7.93;3.78;;;;;;;;;;5054192;28;20553;-82
2023/06/28 07:32:50;;;;;;;4.07;3.47;;;;;;;;;;5071057;28;21003;-83
2023/06/28 07:35:15;;;;;;;9.75;3.90;;;;;;;;;;5071175;28;20036;-81
2023/06/28 07:37:41;;;;;;;8.77;3.97;;;;;;;;;;5053542;28;20382;-83
2023/06/28 07:40:06;;;;;;;8.90;4.22;;;;;;;;;;5071303;28;20025;-82
2023/06/28 07:42:32;;;;;;;8.00;3.95;;;;;;;;;;5072118;28;20047;-82
2023/06/28 07:44:58;;;;;;;6.43;3.67;;;;;;;;;;5053167;28;20021;-82
2023/06/28 07:47:23;;;;;;;7.55;4.03;;;;;;;;;;5071211;28;20094;-82
2023/06/28 07:49:49;;;;;;;7.05;3.75;;;;;;;;;;5055009;28;20150;-82
2023/06/28 07:52:14;;;;;;;8.55;4.07;;;;;;;;;;5053583;28;20105;-80
2023/06/28 07:54:40;;;;;;;6.20;4.20;;;;;;;;;;5063640;28;20579;-81
2023/06/28 07:57:05;;;;;;;7.93;3.80;;;;;;;;;;5018899;28;20351;-82
2023/06/28 07:59:30;;;;;;;7.38;4.03;;;;;;;;;;5019494;28;20024;-82
2023/06/28 08:01:56;;;;;;;6.93;3.70;;;;;;;;;;5004561;28;20458;-82
2023/06/28 08:04:22;;;;;;;12.20;3.97;;;;;;;;;;5020380;28;20069;-81
2023/06/28 08:06:48;;;;;;;6.30;3.75;;;;;;;;;;5036782;28;20036;-82
2023/06/28 08:09:14;;;;;;;10.25;3.42;;;;;;;;;;5037550;28;20021;-82
2023/06/28 08:11:39;;;;;;;7.28;3.97;;;;;;;;;;5020682;28;20021;-83
2023/06/28 08:14:05;;;;;;;4.72;3.40;;;;;;;;;;5057346;28;20035;-83
2023/06/28 08:16:36;;;;;;;7.63;4.10;;;;;;;;;;5056604;28;20337;-81
2023/06/28 08:19:01;;;;;;;8.20;4.05;;;;;;;;;;5058716;28;20396;-82
2023/06/28 08:21:27;;;;;;;5.30;4.15;;;;;;;;;;5058277;28;20103;-80
2023/06/28 08:23:52;;;;;;;8.70;4.00;;;;;;;;;;5035318;28;20518;-80
2023/06/28 08:26:18;;;;;;;9.10;4.40;;;;;;;;;;5053010;28;20025;-81
2023/06/28 08:28:43;;;;;;;6.50;4.13;;;;;;;;;;5018119;28;20025;-82
2023/06/28 08:31:09;;;;;;;9.68;4.72;;;;;;;;;;5035559;28;20040;-80
2023/06/28 08:33:34;;;;;;;8.90;4.53;;;;;;;;;;5018098;28;20044;-80
2023/06/28 08:35:59;;;;;;;5.03;4.35;;;;;;;;;;5034518;28;20029;-80
2023/06/28 08:38:25;;;;;;;8.65;4.72;;;;;;;;;;5053905;28;20283;-82
2023/06/28 08:40:51;;;;;;;12.25;5.00;;;;;;;;;;5018772;28;20031;-83
2023/06/28 08:43:19;;;;;;;8.07;5.30;;;;;;;;;;5035845;28;20060;-82
2023/06/28 08:45:44;;;;;;;8.63;5.35;;;;;;;;;;5020126;28;20040;-82
2023/06/28 08:48:13;;;;;;;7.50;5.25;;;;;;;;;;5035960;28;20444;-80
2023/06/28 08:50:40;;;;;;;6.63;5.60;;;;;;;;;;5022433;28;20025;-82
2023/06/28 08:53:11;;;;;;;5.90;5.30;;;;;;;;;;5035516;28;20053;-80
2023/06/28 08:55:37;;;;;;;6.30;5.60;;;;;;;;;;5018040;28;20025;-83
2023/06/28 08:58:03;;;;;;;7.05;6.13;;;;;;;;;;5032974;28;20052;-83
2023/06/28 09:00:30;;;;;;;9.77;6.10;;;;;;;;;;5037376;28;20041;-83
2023/06/28 09:03:01;;;;;;;8.52;6.55;;;;;;;;;;5036143;28;20089;-86
2023/06/28 09:05:33;;;;;;;8.75;6.70;;;;;;;;;;5043100;28;20050;-85
2023/06/28 09:07:58;;;;;;;10.13;6.78;;;;;;;;;;5022535;28;20033;-84
2023/06/28 09:10:24;;;;;;;13.45;7.32;;;;;;;;;;5034001;28;20025;-83
2023/06/28 09:12:49;;;;;;;10.55;8.18;;;;;;;;;;5013714;28;20029;-84
2023/06/28 09:15:21;;;;;;;11.10;8.43;;;;;;;;;;5014466;28;20021;-84
2023/06/28 09:17:46;;;;;;;12.27;9.10;;;;;;;;;;5031056;28;20057;-83
2023/06/28 09:20:16;;;;;;;11.23;8.60;;;;;;;;;;5030976;28;20045;-84
2023/06/28 09:22:42;;;;;;;13.82;9.40;;;;;;;;;;5031246;28;20438;-83
2023/06/28 09:25:07;;;;;;;10.73;8.85;;;;;;;;;;5017008;28;20029;-83
2023/06/28 09:27:33;;;;;;;12.95;9.32;;;;;;;;;;5030456;28;20030;-83
2023/06/28 09:30:02;;;;;;;12.23;9.23;;;;;;;;;;5031774;28;20102;-84
2023/06/28 09:32:40;;;;;;;11.85;9.27;;;;;;;;;;5016267;28;20368;-83
2023/06/28 09:35:10;;;;;;;11.40;9.73;;;;;;;;;;5017612;28;20395;-83
2023/06/28 09:37:39;;;;;;;12.25;9.80;;;;;;;;;;5034459;28;20028;-84
2023/06/28 09:40:08;;;;;;;11.57;9.20;;;;;;;;;;5033148;28;20037;-86
2023/06/28 09:42:44;;;;;;;12.32;9.57;;;;;;;;;;5033819;28;20408;-84
2023/06/28 09:45:12;;;;;;;13.88;10.27;;;;;;;;;;5035669;28;20037;-85
2023/06/28 09:47:37;;;;;;;13.48;9.57;;;;;;;;;;5020182;28;20034;-84
2023/06/28 09:50:03;;;;;;;13.68;9.95;;;;;;;;;;5038728;28;20032;-84
2023/06/28 09:52:35;;;;;;;17.40;11.15;;;;;;;;;;5020571;28;20045;-86
2023/06/28 09:55:00;;;;;;;15.18;10.68;;;;;;;;;;5020139;28;20025;-86
2023/06/28 09:57:25;;;;;;;15.90;11.82;;;;;;;;;;5019865;28;20564;-81
2023/06/28 09:59:52;;;;;;;16.52;11.80;;;;;;;;;;5037352;28;20108;-81
2023/06/28 10:02:18;;;;;;;18.27;11.63;;;;;;;;;;5020705;28;20067;-80
2023/06/28 10:04:43;;;;;;;18.48;13.13;;;;;;;;;;5019435;28;20021;-79
2023/06/28 10:07:09;;;;;;;19.77;13.48;;;;;;;;;;5036908;28;20456;-79
2023/06/28 10:09:40;;;;;;;20.55;14.50;;;;;;;;;;5019711;28;20470;-80
2023/06/28 10:12:09;;;;;;;20.58;13.82;;;;;;;;;;5036772;28;20063;-80
2023/06/28 10:14:38;;;;;;;21.60;15.30;;;;;;;;;;5035978;28;20032;-81
2023/06/28 10:17:04;;;;;;;23.10;14.85;;;;;;;;;;5019688;28;20025;-80
2023/06/28 10:19:30;;;;;;;25.88;16.45;;;;;;;;;;5035951;28;20029;-80
2023/06/28 10:21:55;;;;;;;24.95;16.73;;;;;;;;;;5019711;28;20022;-80
2023/06/28 10:24:21;;;;;;;23.88;16.85;;;;;;;;;;5020439;28;20044;-81
2023/06/28 10:26:47;;;;;;;21.90;15.18;;;;;;;;;;5019618;28;20112;-80
2023/06/28 10:29:12;;;;;;;22.15;15.40;;;;;;;;;;5036624;28;20029;-80
2023/06/28 10:31:37;;;;;;;21.35;15.35;;;;;;;;;;5035483;28;20033;-80
2023/06/28 10:34:03;;;;;;;25.52;16.02;;;;;;;;;;5035633;28;20037;-81
2023/06/28 10:36:29;;;;;;;28.25;15.90;;;;;;;;;;5035533;28;20025;-80
2023/06/28 10:38:55;;;;;;;25.52;15.38;;;;;;;;;;5035164;28;20159;-81
2023/06/28 10:41:21;;;;;;;24.02;14.45;;;;;;;;;;5019456;28;20073;-80
2023/06/28 10:43:46;;;;;;;21.48;14.55;;;;;;;;;;5018768;28;20026;-80
2023/06/28 10:46:24;;;;;;;19.08;13.70;;;;;;;;;;5035385;28;20037;-81
2023/06/28 10:48:54;;;;;;;22.75;14.80;;;;;;;;;;5035597;28;20409;-80
2023/06/28 10:51:25;;;;;;;20.98;13.73;;;;;;;;;;5018879;28;20465;-80
2023/06/28 10:53:56;;;;;;;21.05;13.23;;;;;;;;;;5018986;28;20045;-80
2023/06/28 10:56:21;;;;;;;;;;;;;;;;;;5019580;28;20353;-80
2023/06/28 10:58:52;;;;;;;17.90;12.80;;;;;;;;;;5034926;28;19919;-80
2023/06/28 11:01:38;;;;;;;17.42;11.82;;;;;;;;;;5020069;28;20024;-80
2023/06/28 11:04:23;;;;;;;14.70;10.75;;;;;;;;;;5054452;28;20029;-80
2023/06/28 11:07:07;;;;;;;21.98;10.50;;;;;;;;;;5050466;28;20025;-80
2023/06/28 11:09:32;;;;;;;17.27;9.85;;;;;;;;;;5044925;28;20021;-80
2023/06/28 11:11:58;;;;;;;12.13;9.35;;;;;;;;;;5044632;28;20021;-80
2023/06/28 11:14:25;;;;;;;16.08;10.02;;;;;;;;;;5038791;28;20025;-79
2023/06/28 11:16:51;;;;;;;15.27;9.60;;;;;;;;;;5037928;28;20033;-79
2023/06/28 11:19:19;;;;;;;14.18;9.43;;;;;;;;;;5037947;28;20044;-80
2023/06/28 11:21:54;;;;;;;13.27;9.43;;;;;;;;;;5037813;28;20033;-80
2023/06/28 11:24:43;;;;;;;12.45;8.50;;;;;;;;;;5052590;28;20124;-79
2023/06/28 11:27:12;;;;;;;10.57;8.95;;;;;;;;;;5054689;28;20032;-79
2023/06/28 11:29:57;;;;;;;13.23;8.95;;;;;;;;;;5054695;28;20025;-80
2023/06/28 11:32:31;;;;;;;12.77;9.23;;;;;;;;;;5054291;28;20119;-79
2023/06/28 11:34:58;;;;;;;14.43;9.55;;;;;;;;;;5020495;28;20029;-79
2023/06/28 11:37:23;;;;;;;12.15;8.85;;;;;;;;;;5036252;28;20039;-80
2023/06/28 11:39:49;;;;;;;11.45;8.93;;;;;;;;;;5037464;28;20029;-80
2023/06/28 11:42:15;;;;;;;12.90;9.13;;;;;;;;;;5021261;28;20033;-80
2023/06/28 11:44:48;;;;;;;9.57;8.02;;;;;;;;;;5037952;28;20033;-79
2023/06/28 11:47:15;;;;;;;15.00;8.77;;;;;;;;;;5038082;28;20056;-79
2023/06/28 11:49:41;;;;;;;12.05;8.57;;;;;;;;;;5041048;28;20056;-80
2023/06/28 11:52:07;;;;;;;12.95;7.95;;;;;;;;;;5049777;28;20037;-85
2023/06/28 11:54:33;;;;;;;10.50;8.00;;;;;;;;;;5069897;28;20025;-86
2023/06/28 11:57:00;;;;;;;12.60;8.00;;;;;;;;;;5070689;28;20035;-85
2023/06/28 11:59:26;;;;;;;12.10;8.35;;;;;;;;;;5035213;28;20063;-84
2023/06/28 12:02:05;;;;;;;10.93;8.63;;;;;;;;;;5045372;28;20013;-82
2023/06/28 12:04:31;;;;;;;12.60;8.82;;;;;;;;;;5075309;28;20048;-85
2023/06/28 12:06:57;;;;;;;12.15;8.43;;;;;;;;;;5069929;28;20033;-86
2023/06/28 12:09:24;;;;;;;9.68;8.18;;;;;;;;;;5042727;28;20103;-86
2023/06/28 12:11:50;;;;;;;13.45;9.10;;;;;;;;;;5054564;28;20025;-85
2023/06/28 12:14:15;;;;;;;10.43;9.05;;;;;;;;;;5053967;28;20044;-80
2023/06/28 12:16:42;;;;;;;10.77;8.70;;;;;;;;;;5055393;28;20442;-86
2023/06/28 12:19:08;;;;;;;12.93;9.23;;;;;;;;;;5037016;28;20436;-84
2023/06/28 12:21:34;;;;;;;14.07;8.63;;;;;;;;;;5036880;28;20029;-84
2023/06/28 12:24:21;;;;;;;14.82;8.38;;;;;;;;;;5036868;28;20379;-84
2023/06/28 12:26:51;;;;;;;11.07;7.90;;;;;;;;;;5037999;28;20064;-85
2023/06/28 12:29:20;;;;;;;11.98;8.30;;;;;;;;;;5054836;28;20024;-84
2023/06/28 12:31:48;;;;;;;11.52;8.00;;;;;;;;;;5053122;28;20021;-84
2023/06/28 12:34:19;;;;;;;10.38;7.28;;;;;;;;;;5036311;28;20033;-83
2023/06/28 12:36:48;;;;;;;17.77;7.85;;;;;;;;;;5020506;28;20061;-84
2023/06/28 12:39:20;;;;;;;14.60;7.03;;;;;;;;;;5037215;28;20021;-84
2023/06/28 12:42:01;;;;;;;9.45;7.13;;;;;;;;;;5052837;28;20078;-88
2023/06/28 12:44:28;;;;;;;8.48;6.95;;;;;;;;;;5052804;28;20041;-85
2023/06/28 12:46:53;;;;;;;10.52;6.65;;;;;;;;;;5052823;28;20123;-84
2023/06/28 12:49:18;;;;;;;8.90;6.70;;;;;;;;;;5036131;28;20107;-84
2023/06/28 12:51:44;;;;;;;12.18;7.60;;;;;;;;;;5038154;28;20174;-86
2023/06/28 12:54:12;;;;;;;10.77;7.05;;;;;;;;;;5039205;28;20507;-83
2023/06/28 12:56:37;;;;;;;9.30;6.10;;;;;;;;;;5039929;28;20383;-86
2023/06/28 12:59:02;;;;;;;11.52;7.45;;;;;;;;;;5056111;28;20036;-84
2023/06/28 13:01:28;;;;;;;11.50;7.47;;;;;;;;;;5056109;28;20029;-83
2023/06/28 13:03:54;;;;;;;9.13;7.38;;;;;;;;;;5055554;28;20039;-84
2023/06/28 13:06:23;;;;;;;9.90;7.43;;;;;;;;;;5073963;28;20374;-82
2023/06/28 13:08:48;;;;;;;8.52;7.63;;;;;;;;;;5056288;28;20032;-83
2023/06/28 13:11:14;;;;;;;11.15;8.13;;;;;;;;;;5056103;28;20043;-83
2023/06/28 13:13:39;;;;;;;9.85;7.85;;;;;;;;;;5056202;28;20036;-83
2023/06/28 13:16:06;;;;;;;12.15;8.00;;;;;;;;;;5055961;28;20025;-82
2023/06/28 13:18:31;;;;;;;10.73;8.18;;;;;;;;;;5039114;28;20442;-83
2023/06/28 13:20:57;;;;;;;9.95;8.18;;;;;;;;;;5075733;28;20131;-83
2023/06/28 13:23:22;;;;;;;9.60;8.25;;;;;;;;;;5043659;28;20029;-83
2023/06/28 13:25:48;;;;;;;11.32;9.23;;;;;;;;;;5060494;28;20020;-82
2023/06/28 13:28:13;;;;;;;10.77;8.75;;;;;;;;;;5044192;28;20039;-84
2023/06/28 13:30:39;;;;;;;10.85;8.23;;;;;;;;;;5043391;28;20025;-83
2023/06/28 13:33:05;;;;;;;12.82;9.13;;;;;;;;;;5042933;28;20479;-83
2023/06/28 13:35:30;;;;;;;13.02;9.50;;;;;;;;;;5077757;28;20063;-83
2023/06/28 13:37:56;;;;;;;14.73;9.73;;;;;;;;;;5059715;28;20024;-83
2023/06/28 13:40:21;;;;;;;11.68;9.77;;;;;;;;;;5077485;28;20409;-82
2023/06/28 13:42:46;;;;;;;17.02;10.02;;;;;;;;;;5042637;28;20032;-83
2023/06/28 13:45:12;;;;;;;13.13;10.27;;;;;;;;;;5059810;28;20028;-83
2023/06/28 13:47:38;;;;;;;15.32;11.43;;;;;;;;;;5042525;28;20459;-83
2023/06/28 13:50:04;;;;;;;15.93;11.55;;;;;;;;;;5042892;28;20040;-83
2023/06/28 13:52:30;;;;;;;16.85;11.55;;;;;;;;;;5059418;28;20044;-83
2023/06/28 13:54:55;;;;;;;18.20;12.35;;;;;;;;;;5059194;28;20028;-83
2023/06/28 13:57:22;;;;;;;18.08;13.07;;;;;;;;;;5026310;28;20074;-83
2023/06/28 13:59:48;;;;;;;15.75;13.20;;;;;;;;;;5026480;28;20021;-83
2023/06/28 14:02:14;;;;;;;18.50;12.90;;;;;;;;;;5042090;28;20086;-83
2023/06/28 14:04:39;;;;;;;18.13;12.95;;;;;;;;;;5042781;28;20078;-83
2023/06/28 14:07:05;;;;;;;17.48;13.15;;;;;;;;;;5058891;28;20440;-83
2023/06/28 14:09:30;;;;;;;19.13;12.68;;;;;;;;;;5042344;28;20025;-83
2023/06/28 14:11:56;;;;;;;15.52;11.85;;;;;;;;;;5058945;28;20024;-84
2023/06/28 14:14:22;;;;;;;15.00;11.00;;;;;;;;;;5058967;28;20140;-83
2023/06/28 14:16:48;;;;;;;16.33;11.90;;;;;;;;;;5041804;28;20043;-84
2023/06/28 14:19:13;;;;;;;14.23;11.00;;;;;;;;;;5025882;28;20111;-83
2023/06/28 14:21:39;;;;;;;14.82;10.27;;;;;;;;;;5058733;28;20035;-83
2023/06/28 14:24:05;;;;;;;16.83;9.77;;;;;;;;;;5058830;28;20025;-84
2023/06/28 14:26:30;;;;;;;12.70;9.75;;;;;;;;;;5058929;28;20024;-83
2023/06/28 14:28:56;;;;;;;12.73;9.30;;;;;;;;;;5041989;28;20388;-83
2023/06/28 14:31:21;;;;;;;11.80;9.60;;;;;;;;;;5076397;28;20060;-83
2023/06/28 14:33:47;;;;;;;15.05;9.90;;;;;;;;;;5057393;28;20482;-83
2023/06/28 14:36:12;;;;;;;12.65;8.80;;;;;;;;;;5076622;28;20035;-83